createdAt,value
2023-02-14T00:00:34.172Z,86.62
2023-02-14T00:01:34.175Z,86.72
2023-02-14T00:02:34.194Z,86.72
2023-02-14T00:03:34.153Z,87.14
2023-02-14T00:04:34.183Z,86.93
2023-02-14T00:05:34.127Z,88.07
2023-02-14T00:06:34.103Z,87.35
2023-02-14T00:07:34.156Z,87.35
2023-02-14T00:08:34.077Z,87.35
2023-02-14T00:09:34.110Z,88.79
2023-02-14T00:10:34.061Z,87.66
2023-02-14T00:11:34.071Z,87.14
2023-02-14T00:12:34.050Z,87.55
2023-02-14T00:13:34.042Z,87.35
2023-02-14T00:14:34.029Z,87.66
2023-02-14T00:15:34.069Z,88.39
2023-02-14T00:16:34.006Z,88.48
2023-02-14T00:17:34.047Z,87.66
2023-02-14T00:18:33.984Z,87.45
2023-02-14T00:19:33.996Z,87.66
2023-02-14T00:20:33.994Z,87.35
2023-02-14T00:21:33.952Z,87.49
2023-02-14T00:22:33.934Z,88.01
2023-02-14T00:23:33.934Z,88.63
2023-02-14T00:24:33.909Z,88.84
2023-02-14T00:25:33.910Z,88.79
2023-02-14T00:26:33.919Z,88.69
2023-02-14T00:27:33.887Z,88.21
2023-02-14T00:28:33.866Z,88.42
2023-02-14T00:29:33.922Z,88.84
2023-02-14T00:30:34.005Z,88.94
2023-02-14T00:31:33.959Z,89.36
2023-02-14T00:32:33.856Z,88.73
2023-02-14T00:33:33.828Z,88.21
2023-02-14T00:34:33.816Z,88.63
2023-02-14T00:35:33.806Z,89.25
2023-02-14T00:36:33.776Z,89.46
2023-02-14T00:37:33.790Z,89.56
2023-02-14T00:38:33.763Z,89.67
2023-02-14T00:39:33.778Z,89.83
2023-02-14T00:40:33.765Z,89.25
2023-02-14T00:41:33.742Z,89.46
2023-02-14T00:42:33.712Z,89.56
2023-02-14T00:43:33.720Z,89.73
2023-02-14T00:44:33.699Z,88.90
2023-02-14T00:45:33.752Z,88.94
2023-02-14T00:46:33.709Z,88.59
2023-02-14T00:47:33.678Z,90.45
2023-02-14T00:48:33.643Z,89.62
2023-02-14T00:49:33.655Z,88.48
2023-02-14T00:50:33.616Z,88.69
2023-02-14T00:51:33.634Z,88.28
2023-02-14T00:52:33.621Z,88.39
2023-02-14T00:53:33.603Z,88.18
2023-02-14T00:54:33.580Z,90.04
2023-02-14T00:55:33.600Z,88.79
2023-02-14T00:56:33.577Z,88.69
2023-02-14T00:57:33.565Z,88.59
2023-02-14T00:58:33.537Z,88.63
2023-02-14T00:59:33.542Z,88.84
2023-02-14T01:00:33.561Z,88.42
2023-02-14T01:01:33.561Z,88.42
2023-02-14T01:02:33.505Z,88.21
2023-02-14T01:03:33.494Z,88.42
2023-02-14T01:04:33.470Z,88.63
2023-02-14T01:05:33.471Z,88.57
2023-02-14T01:06:33.465Z,88.67
2023-02-14T01:07:33.482Z,89.19
2023-02-14T01:08:33.420Z,88.88
2023-02-14T01:09:33.441Z,89.61
2023-02-14T01:10:33.405Z,89.50
2023-02-14T01:11:33.405Z,89.71
2023-02-14T01:12:33.383Z,89.81
2023-02-14T01:13:33.412Z,89.40
2023-02-14T01:14:33.367Z,89.92
2023-02-14T01:15:33.376Z,90.12
2023-02-14T01:16:33.433Z,90.02
2023-02-14T01:17:33.349Z,89.40
2023-02-14T01:18:33.328Z,89.71
2023-02-14T01:19:33.350Z,90.75
2023-02-14T01:20:33.297Z,90.64
2023-02-14T01:21:33.309Z,90.81
2023-02-14T01:22:33.282Z,90.29
2023-02-14T01:23:33.281Z,90.02
2023-02-14T01:24:33.262Z,90.75
2023-02-14T01:25:33.271Z,90.70
2023-02-14T01:26:33.253Z,89.77
2023-02-14T01:27:33.241Z,90.70
2023-02-14T01:28:33.212Z,92.26
2023-02-14T01:29:33.228Z,90.19
2023-02-14T01:30:33.206Z,89.77
2023-02-14T01:31:33.315Z,90.19
2023-02-14T01:32:33.171Z,90.60
2023-02-14T01:33:33.168Z,89.71
2023-02-14T01:34:33.149Z,89.92
2023-02-14T01:35:33.155Z,90.44
2023-02-14T01:36:33.151Z,90.95
2023-02-14T01:37:33.138Z,90.85
2023-02-14T01:38:33.103Z,90.95
2023-02-14T01:39:33.101Z,90.85
2023-02-14T01:40:33.084Z,91.27
2023-02-14T01:41:33.122Z,91.16
2023-02-14T01:42:33.063Z,91.27
2023-02-14T01:43:33.070Z,91.16
2023-02-14T01:44:33.044Z,90.54
2023-02-14T01:45:33.092Z,91.37
2023-02-14T01:46:33.018Z,91.43
2023-02-14T01:47:33.038Z,91.12
2023-02-14T01:48:33.051Z,90.70
2023-02-14T01:49:33.012Z,91.02
2023-02-14T01:50:32.989Z,90.50
2023-02-14T01:51:32.976Z,90.81
2023-02-14T01:52:32.956Z,90.60
2023-02-14T01:53:32.954Z,90.64
2023-02-14T01:54:32.963Z,91.12
2023-02-14T01:55:32.957Z,91.22
2023-02-14T01:56:32.913Z,90.60
2023-02-14T01:57:32.912Z,90.50
2023-02-14T01:58:32.900Z,90.50
2023-02-14T01:59:32.911Z,91.22
2023-02-14T02:00:32.888Z,90.39
2023-02-14T02:01:32.929Z,90.64
2023-02-14T02:02:32.895Z,90.44
2023-02-14T02:03:32.845Z,91.16
2023-02-14T02:04:32.832Z,90.54
2023-02-14T02:05:32.826Z,90.44
2023-02-14T02:06:32.818Z,90.44
2023-02-14T02:07:32.817Z,90.75
2023-02-14T02:08:32.786Z,91.22
2023-02-14T02:09:32.805Z,90.70
2023-02-14T02:10:32.758Z,90.50
2023-02-14T02:11:32.778Z,90.33
2023-02-14T02:12:32.740Z,90.33
2023-02-14T02:13:32.764Z,90.44
2023-02-14T02:14:32.735Z,90.12
2023-02-14T02:15:32.733Z,90.54
2023-02-14T02:16:32.799Z,90.95
2023-02-14T02:17:32.716Z,91.06
2023-02-14T02:18:32.669Z,91.27
2023-02-14T02:19:32.710Z,90.85
2023-02-14T02:20:32.670Z,90.12
2023-02-14T02:21:32.677Z,89.61
2023-02-14T02:22:32.623Z,89.92
2023-02-14T02:23:32.636Z,90.44
2023-02-14T02:24:32.636Z,90.85
2023-02-14T02:25:32.630Z,90.23
2023-02-14T02:26:32.624Z,90.23
2023-02-14T02:27:32.621Z,88.98
2023-02-14T02:28:32.560Z,89.29
2023-02-14T02:29:32.577Z,89.92
2023-02-14T07:00:59.634Z,92.47
2023-02-14T07:02:00.243Z,92.16
2023-02-14T07:03:00.382Z,92.26
2023-02-14T07:04:00.211Z,92.16
2023-02-14T07:05:00.234Z,92.26
2023-02-14T07:06:00.203Z,92.05
2023-02-14T07:07:00.212Z,91.70
2023-02-14T07:08:00.174Z,91.49
2023-02-14T07:09:00.206Z,92.32
2023-02-14T07:10:00.158Z,91.70
2023-02-14T07:11:00.409Z,92.43
2023-02-14T07:12:00.131Z,92.53
2023-02-14T07:13:00.134Z,93.68
2023-02-14T07:14:00.125Z,92.11
2023-02-14T07:15:00.160Z,92.53
2023-02-14T07:16:00.203Z,92.53
2023-02-14T07:17:00.118Z,91.70
2023-02-14T07:18:00.101Z,91.39
2023-02-14T07:19:00.107Z,91.49
2023-02-14T07:20:00.043Z,91.18
2023-02-14T07:21:00.512Z,90.87
2023-02-14T07:22:00.043Z,90.87
2023-02-14T07:23:00.032Z,90.66
2023-02-14T07:24:00.013Z,90.77
2023-02-14T07:25:00.026Z,90.77
2023-02-14T07:26:00.002Z,90.66
2023-02-14T07:27:00.015Z,90.52
2023-02-14T07:27:59.961Z,91.35
2023-02-14T07:28:59.965Z,90.41
2023-02-14T07:30:00.005Z,90.93
2023-02-14T07:31:00.365Z,90.10
2023-02-14T07:32:00.117Z,91.03
2023-02-14T07:32:59.955Z,91.97
2023-02-14T07:33:59.901Z,90.93
2023-02-14T07:34:59.912Z,90.83
2023-02-14T07:35:59.950Z,91.55
2023-02-14T07:36:59.895Z,91.55
2023-02-14T07:37:59.855Z,92.28
2023-02-14T07:38:59.892Z,92.18
2023-02-14T07:39:59.836Z,91.66
2023-02-14T07:41:00.195Z,90.83
2023-02-14T07:41:59.831Z,92.07
2023-02-14T07:42:59.842Z,91.45
2023-02-14T07:43:59.791Z,91.86
2023-02-14T07:45:04.782Z,91.76
2023-02-14T07:45:59.810Z,91.24
2023-02-14T07:46:59.783Z,90.93
2023-02-14T07:47:59.749Z,92.66
2023-02-14T07:48:59.794Z,91.72
2023-02-14T07:49:59.733Z,92.14
2023-02-14T07:51:00.153Z,91.72
2023-02-14T07:51:59.707Z,92.55
2023-02-14T07:52:59.718Z,90.00
2023-02-14T07:53:59.716Z,89.89
2023-02-14T07:54:59.696Z,90.00
2023-02-14T07:55:59.686Z,91.24
2023-02-14T07:56:59.676Z,91.14
2023-02-14T07:57:59.656Z,90.72
2023-02-14T07:58:59.646Z,91.45
2023-02-14T07:59:59.716Z,90.20
2023-02-14T08:01:00.039Z,90.52
2023-02-14T08:01:59.722Z,91.97
2023-02-14T08:02:59.598Z,92.28
2023-02-14T08:03:59.596Z,90.31
2023-02-14T08:04:59.712Z,88.75
2023-02-14T08:05:59.587Z,88.44
2023-02-14T08:06:59.589Z,89.94
2023-02-14T08:07:59.564Z,90.25
2023-02-14T08:08:59.546Z,90.66
2023-02-14T08:09:59.542Z,90.66
2023-02-14T08:10:59.940Z,89.73
2023-02-14T08:11:59.505Z,89.73
2023-02-14T08:12:59.496Z,89.94
2023-02-14T08:13:59.476Z,90.77
2023-02-14T08:14:59.482Z,90.56
2023-02-14T08:15:59.505Z,90.41
2023-02-14T08:16:59.486Z,91.24
2023-02-14T08:17:59.659Z,90.41
2023-02-14T08:18:59.422Z,90.72
2023-02-14T08:19:59.431Z,90.52
2023-02-14T08:20:59.782Z,89.48
2023-02-14T08:21:59.409Z,90.31
2023-02-14T08:22:59.400Z,89.69
2023-02-14T08:23:59.433Z,89.79
2023-02-14T08:24:59.354Z,89.17
2023-02-14T08:25:59.353Z,89.27
2023-02-14T08:26:59.354Z,89.27
2023-02-14T08:27:59.340Z,89.89
2023-02-14T08:28:59.328Z,91.24
2023-02-14T08:29:59.318Z,90.20
2023-02-14T08:30:59.638Z,90.20
2023-02-14T08:31:59.419Z,90.31
2023-02-14T08:32:59.378Z,90.10
2023-02-14T08:33:59.306Z,89.17
2023-02-14T08:34:59.278Z,89.79
2023-02-14T08:35:59.280Z,90.41
2023-02-14T08:36:59.225Z,90.10
2023-02-14T08:37:59.226Z,90.00
2023-02-14T08:38:59.217Z,91.03
2023-02-14T08:39:59.205Z,90.00
2023-02-14T08:40:59.513Z,89.17
2023-02-14T08:41:59.206Z,89.03
2023-02-14T08:42:59.190Z,88.82
2023-02-14T08:43:59.195Z,88.71
2023-02-14T08:44:59.150Z,89.86
2023-02-14T08:45:59.697Z,89.44
2023-02-14T08:46:59.216Z,90.17
2023-02-14T08:47:59.129Z,89.44
2023-02-14T08:48:59.111Z,89.54
2023-02-14T08:49:59.121Z,88.71
2023-02-14T08:50:59.568Z,90.58
2023-02-14T08:51:59.104Z,89.75
2023-02-14T08:52:59.062Z,89.75
2023-02-14T08:53:59.103Z,89.03
2023-02-14T08:54:59.064Z,87.47
2023-02-14T08:55:59.346Z,87.68
2023-02-14T08:56:59.030Z,87.26
2023-02-14T08:57:59.045Z,87.68
2023-02-14T08:58:59.019Z,87.74
2023-02-14T08:59:59.024Z,87.63
2023-02-14T09:00:59.311Z,87.32
2023-02-14T09:01:58.999Z,87.43
2023-02-14T09:02:58.975Z,87.53
2023-02-14T09:03:59.063Z,87.43
2023-02-14T09:04:58.938Z,87.63
2023-02-14T09:05:58.936Z,88.46
2023-02-14T09:06:58.956Z,89.71
2023-02-14T09:07:58.957Z,89.40
2023-02-14T09:09:00.842Z,88.88
2023-02-14T09:09:58.960Z,88.88
2023-02-14T09:10:59.403Z,89.81
2023-02-14T09:11:58.878Z,89.19
2023-02-14T09:12:58.846Z,88.63
2023-02-14T09:13:58.893Z,88.32
2023-02-14T09:14:58.826Z,86.87
2023-02-14T09:15:58.838Z,89.25
2023-02-14T09:16:58.862Z,88.36
2023-02-14T09:17:58.808Z,88.36
2023-02-14T09:18:58.775Z,87.74
2023-02-14T09:19:58.809Z,88.88
2023-02-14T09:20:59.107Z,90.75
2023-02-14T09:21:58.803Z,89.50
2023-02-14T09:22:58.728Z,88.78
2023-02-14T09:23:58.749Z,89.29
2023-02-14T09:24:58.710Z,89.61
2023-02-14T09:25:58.751Z,88.57
2023-02-14T09:26:58.715Z,88.67
2023-02-14T09:27:58.694Z,88.78
2023-02-14T09:28:58.670Z,88.57
2023-02-14T09:29:58.711Z,88.98
2023-02-14T09:30:59.036Z,89.71
2023-02-14T09:31:58.800Z,88.88
2023-02-14T09:32:58.631Z,89.50
2023-02-14T09:33:58.625Z,88.67
2023-02-14T09:34:58.606Z,88.57
2023-02-14T09:35:58.602Z,88.98
2023-02-14T09:36:58.605Z,89.40
2023-02-14T09:37:58.595Z,88.26
2023-02-14T09:38:58.574Z,88.78
2023-02-14T09:39:58.562Z,88.98
2023-02-14T09:40:58.875Z,87.95
2023-02-14T09:41:58.540Z,89.50
2023-02-14T09:43:01.468Z,89.61
2023-02-14T09:43:58.521Z,89.40
2023-02-14T09:44:58.512Z,89.09
2023-02-14T09:45:58.567Z,89.50
2023-02-14T09:46:58.527Z,89.19
2023-02-14T09:47:58.484Z,87.95
2023-02-14T09:48:58.565Z,89.40
2023-02-14T09:49:58.493Z,89.81
2023-02-14T09:50:58.883Z,90.12
2023-02-14T09:51:58.461Z,88.57
2023-02-14T09:52:58.410Z,88.46
2023-02-14T09:53:58.428Z,88.05
2023-02-14T09:54:58.399Z,88.26
2023-02-14T09:55:58.396Z,87.74
2023-02-14T09:56:58.720Z,87.43
2023-02-14T09:57:58.387Z,88.15
2023-02-14T09:58:58.378Z,87.38
2023-02-14T09:59:58.358Z,88.11
2023-02-14T10:00:58.821Z,87.28
2023-02-14T10:01:58.439Z,86.55
2023-02-14T10:02:58.325Z,87.28
2023-02-14T10:03:58.326Z,87.38
2023-02-14T10:04:58.293Z,88.42
2023-02-14T10:05:58.289Z,86.76
2023-02-14T10:06:58.802Z,86.45
2023-02-14T10:07:58.253Z,87.63
2023-02-14T10:08:58.267Z,88.67
2023-02-14T10:09:58.248Z,88.78
2023-02-14T10:10:58.574Z,86.70
2023-02-14T10:11:58.216Z,88.67
2023-02-14T10:12:58.200Z,89.04
2023-02-14T10:13:58.196Z,88.15
2023-02-14T10:14:58.189Z,88.21
2023-02-14T10:15:58.192Z,88.32
2023-02-14T10:16:58.469Z,89.15
2023-02-14T10:17:58.153Z,89.67
2023-02-14T10:18:58.134Z,89.25
2023-02-14T10:19:58.152Z,90.60
2023-02-14T10:20:58.589Z,87.70
2023-02-14T10:21:58.128Z,88.42
2023-02-14T10:22:58.090Z,89.46
2023-02-14T10:23:58.096Z,88.94
2023-02-14T10:24:58.110Z,88.84
2023-02-14T10:25:58.069Z,88.73
2023-02-14T10:26:58.050Z,88.21
2023-02-14T10:27:58.054Z,88.11
2023-02-14T10:28:58.031Z,88.53
2023-02-14T10:29:58.182Z,87.80
2023-02-14T10:30:58.328Z,87.28
2023-02-14T10:31:58.078Z,87.59
2023-02-14T10:32:57.984Z,87.90
2023-02-14T10:33:58.145Z,87.14
2023-02-14T10:34:57.980Z,87.24
2023-02-14T10:35:57.964Z,87.55
2023-02-14T10:36:57.936Z,89.21
2023-02-14T10:37:57.937Z,88.39
2023-02-14T10:38:57.910Z,87.66
2023-02-14T10:39:57.955Z,88.48
2023-02-14T10:40:58.304Z,87.66
2023-02-14T10:41:57.902Z,87.76
2023-02-14T10:42:57.892Z,88.48
2023-02-14T10:43:57.898Z,89.00
2023-02-14T10:44:57.851Z,86.83
2023-02-14T10:45:57.955Z,86.83
2023-02-14T10:46:57.838Z,89.21
2023-02-14T10:47:57.840Z,89.31
2023-02-14T10:48:57.816Z,89.21
2023-02-14T10:49:57.836Z,87.97
2023-02-14T10:50:57.949Z,86.93
2023-02-14T10:51:57.822Z,86.31
2023-02-14T10:52:57.772Z,86.41
2023-02-14T10:53:57.864Z,86.10
2023-02-14T10:54:57.743Z,85.79
2023-02-14T10:55:58.145Z,85.65
2023-02-14T10:56:58.628Z,85.75
2023-02-14T10:57:57.767Z,85.79
2023-02-14T10:58:57.709Z,85.48
2023-02-14T10:59:57.726Z,85.75
2023-02-14T11:00:57.955Z,85.86
2023-02-14T11:01:57.691Z,86.07
2023-02-14T11:02:57.668Z,86.07
2023-02-14T11:03:57.721Z,85.96
2023-02-14T11:04:57.650Z,86.13
2023-02-14T11:05:57.643Z,86.23
2023-02-14T11:07:00.621Z,86.44
2023-02-14T11:07:57.619Z,86.44
2023-02-14T11:08:57.641Z,87.47
2023-02-14T11:09:57.604Z,85.71
2023-02-14T11:10:57.578Z,86.54
2023-02-14T11:11:57.628Z,86.65
2023-02-14T11:12:57.598Z,86.54
2023-02-14T11:13:57.587Z,86.54
2023-02-14T11:14:57.566Z,86.96
2023-02-14T11:15:58.152Z,87.78
2023-02-14T11:16:57.523Z,86.50
2023-02-14T11:17:57.524Z,86.29
2023-02-14T11:18:57.490Z,86.81
2023-02-14T11:19:57.511Z,87.23
2023-02-14T11:20:57.502Z,86.40
2023-02-14T11:21:57.479Z,86.40
2023-02-14T11:22:57.483Z,85.36
2023-02-14T11:23:57.478Z,84.43
2023-02-14T11:24:57.434Z,86.50
2023-02-14T11:25:57.760Z,85.99
2023-02-14T11:26:57.405Z,85.36
2023-02-14T11:27:57.401Z,86.40
2023-02-14T11:28:57.394Z,85.47
2023-02-14T11:29:57.430Z,85.47
2023-02-14T11:30:57.534Z,86.71
2023-02-14T11:31:57.469Z,85.57
2023-02-14T11:32:57.338Z,84.74
2023-02-14T11:33:57.363Z,85.05
2023-02-14T11:34:57.339Z,84.84
2023-02-14T11:35:57.382Z,85.36
2023-02-14T11:36:57.318Z,85.47
2023-02-14T11:37:57.304Z,85.99
2023-02-14T11:38:57.277Z,85.47
2023-02-14T11:39:57.313Z,84.95
2023-02-14T11:40:57.497Z,85.68
2023-02-14T11:41:57.294Z,86.71
2023-02-14T11:43:12.826Z,85.26
2023-02-14T11:43:57.244Z,84.64
2023-02-14T11:44:57.214Z,84.53
2023-02-14T11:45:57.273Z,84.22
2023-02-14T11:46:57.206Z,85.32
2023-02-14T11:47:57.210Z,83.56
2023-02-14T11:48:57.177Z,83.56
2023-02-14T11:49:57.163Z,85.32
2023-02-14T11:50:57.294Z,85.02
2023-02-14T11:51:57.152Z,84.12
2023-02-14T11:52:57.161Z,85.36
2023-02-14T11:53:57.126Z,84.33
2023-02-14T11:54:57.124Z,84.22
2023-02-14T11:55:57.101Z,84.08
2023-02-14T11:56:57.091Z,84.29
2023-02-14T11:57:57.088Z,84.70
2023-02-14T11:58:57.091Z,84.39
2023-02-14T11:59:57.101Z,84.19
2023-02-14T12:00:57.050Z,85.02
2023-02-14T12:01:57.032Z,85.32
2023-02-14T12:02:57.008Z,84.29
2023-02-14T12:03:57.076Z,84.39
2023-02-14T12:04:57.014Z,84.60
2023-02-14T12:05:57.000Z,84.08
2023-02-14T12:06:56.977Z,83.56
2023-02-14T12:07:56.978Z,82.64
2023-02-14T12:08:56.949Z,82.32
2023-02-14T12:09:58.743Z,83.42
2023-02-14T12:10:56.973Z,82.90
2023-02-14T12:11:56.933Z,84.25
2023-02-14T12:12:56.917Z,84.15
2023-02-14T12:13:56.912Z,82.60
2023-02-14T12:14:56.900Z,83.22
2023-02-14T12:15:56.900Z,85.28
2023-02-14T12:16:56.941Z,85.08
2023-02-14T12:17:56.876Z,83.11
2023-02-14T12:18:56.838Z,83.32
2023-02-14T12:19:56.848Z,83.73
2023-02-14T12:20:56.965Z,83.84
2023-02-14T12:21:56.860Z,82.90
2023-02-14T12:22:56.801Z,84.05
2023-02-14T12:23:56.821Z,83.01
2023-02-14T12:24:56.780Z,83.94
2023-02-14T12:25:56.869Z,83.22
2023-02-14T12:26:57.741Z,84.25
2023-02-14T12:27:56.784Z,84.36
2023-02-14T12:28:56.817Z,83.63
2023-02-14T12:29:56.777Z,83.11
2023-02-14T12:30:56.860Z,83.73
2023-02-14T12:31:56.844Z,82.39
2023-02-14T12:32:56.808Z,81.05
2023-02-14T12:33:56.690Z,81.98
2023-02-14T12:34:56.679Z,83.73
2023-02-14T12:35:56.677Z,82.39
2023-02-14T12:36:56.778Z,83.11
2023-02-14T12:38:04.351Z,83.42
2023-02-14T12:38:56.679Z,82.50
2023-02-14T12:39:56.616Z,83.11
2023-02-14T12:40:56.616Z,82.39
2023-02-14T12:41:56.586Z,83.11
2023-02-14T12:42:56.593Z,82.15
2023-02-14T12:43:56.563Z,82.45
2023-02-14T12:44:56.589Z,82.15
2023-02-14T12:45:56.543Z,81.52
2023-02-14T12:46:56.655Z,81.52
2023-02-14T12:47:56.522Z,82.87
2023-02-14T12:48:56.529Z,81.63
2023-02-14T12:49:56.513Z,82.66
2023-02-14T12:50:56.617Z,81.80
2023-02-14T12:51:56.487Z,83.04
2023-02-14T12:52:56.501Z,83.25
2023-02-14T12:53:56.460Z,82.52
2023-02-14T12:54:56.462Z,82.00
2023-02-14T12:55:56.455Z,83.25
2023-02-14T12:56:56.518Z,83.25
2023-02-14T12:57:56.415Z,82.52
2023-02-14T12:58:56.468Z,80.76
2023-02-14T12:59:56.397Z,80.25
2023-02-14T13:00:56.432Z,81.70
2023-02-14T13:01:56.428Z,81.66
2023-02-14T13:02:56.402Z,81.56
2023-02-14T13:03:56.360Z,80.76
2023-02-14T13:04:56.358Z,83.04
2023-02-14T13:05:56.331Z,81.45
2023-02-14T13:06:56.394Z,82.89
2023-02-14T13:07:56.325Z,82.48
2023-02-14T13:08:56.337Z,82.38
2023-02-14T13:09:57.770Z,81.45
2023-02-14T13:10:56.302Z,80.62
2023-02-14T13:11:56.298Z,81.45
2023-02-14T13:12:56.279Z,80.35
2023-02-14T13:13:56.264Z,81.35
2023-02-14T13:14:56.250Z,82.07
2023-02-14T13:15:56.247Z,81.24
2023-02-14T13:16:56.260Z,80.93
2023-02-14T13:17:56.212Z,81.24
2023-02-14T13:18:56.229Z,83.00
2023-02-14T13:19:56.182Z,83.62
2023-02-14T13:20:56.195Z,81.56
2023-02-14T13:21:57.694Z,80.62
2023-02-14T13:22:56.186Z,80.62
2023-02-14T13:23:56.141Z,80.93
2023-02-14T13:24:56.158Z,81.56
2023-02-14T13:25:56.122Z,82.89
2023-02-14T13:26:56.121Z,81.86
2023-02-14T13:27:56.107Z,81.24
2023-02-14T13:28:56.115Z,81.14
2023-02-14T13:29:56.086Z,80.93
2023-02-14T13:30:56.164Z,80.93
2023-02-14T13:31:56.102Z,79.90
2023-02-14T13:32:56.058Z,81.41
2023-02-14T13:33:56.053Z,78.66
2023-02-14T13:34:56.032Z,80.28
2023-02-14T13:35:56.021Z,81.62
2023-02-14T13:36:56.008Z,81.82
2023-02-14T13:37:56.012Z,77.28
2023-02-14T13:38:56.094Z,77.80
2023-02-14T13:39:55.975Z,80.18
2023-02-14T13:40:55.972Z,79.04
2023-02-14T13:41:55.948Z,79.76
2023-02-14T13:42:55.960Z,79.04
2023-02-14T13:43:55.927Z,80.48
2023-02-14T13:44:55.943Z,81.21
2023-02-14T13:45:55.924Z,80.38
2023-02-14T13:46:55.998Z,79.35
2023-02-14T13:47:55.948Z,81.10
2023-02-14T13:48:55.865Z,79.55
2023-02-14T13:49:55.855Z,80.58
2023-02-14T13:50:55.899Z,79.97
2023-02-14T13:51:55.835Z,80.07
2023-02-14T13:52:55.847Z,79.35
2023-02-14T13:53:55.802Z,79.14
2023-02-14T13:54:55.821Z,77.59
2023-02-14T13:55:55.837Z,77.59
2023-02-14T13:56:55.830Z,79.35
2023-02-14T13:57:55.773Z,78.42
2023-02-14T13:58:55.795Z,79.52
2023-02-14T13:59:55.764Z,80.24
2023-02-14T14:00:55.813Z,78.69
2023-02-14T14:01:55.746Z,80.55
2023-02-14T14:02:55.745Z,80.65
2023-02-14T14:03:55.758Z,80.24
2023-02-14T14:04:55.717Z,80.20
2023-02-14T14:05:55.696Z,81.44
2023-02-14T14:06:55.685Z,80.20
2023-02-14T14:07:55.683Z,79.69
2023-02-14T14:08:55.680Z,79.48
2023-02-14T14:09:55.661Z,81.34
2023-02-14T14:10:55.635Z,80.62
2023-02-14T14:11:55.626Z,80.93
2023-02-14T14:12:55.642Z,80.82
2023-02-14T14:13:55.614Z,81.85
2023-02-14T14:14:55.618Z,80.82
2023-02-14T14:15:55.663Z,80.62
2023-02-14T14:16:55.600Z,81.03
2023-02-14T14:17:55.578Z,80.10
2023-02-14T14:18:55.552Z,77.94
2023-02-14T14:19:55.572Z,77.73
2023-02-14T14:20:55.531Z,79.07
2023-02-14T14:21:55.532Z,79.69
2023-02-14T14:22:55.549Z,79.07
2023-02-14T14:23:55.500Z,79.58
2023-02-14T14:24:55.664Z,78.86
2023-02-14T14:25:55.485Z,79.69
2023-02-14T14:26:55.473Z,79.65
2023-02-14T14:27:55.446Z,77.48
2023-02-14T14:28:55.472Z,79.55
2023-02-14T14:29:55.485Z,79.96
2023-02-14T14:30:55.468Z,78.83
2023-02-14T14:31:55.704Z,79.86
2023-02-14T14:32:55.429Z,80.47
2023-02-14T14:33:55.386Z,80.68
2023-02-14T14:34:55.412Z,81.30
2023-02-14T14:35:55.379Z,78.31
2023-02-14T14:36:55.371Z,79.14
2023-02-14T14:37:55.343Z,79.86
2023-02-14T14:38:55.352Z,79.14
2023-02-14T14:39:55.351Z,77.86
2023-02-14T14:40:55.332Z,79.51
2023-02-14T14:41:55.320Z,78.17
2023-02-14T14:42:55.306Z,77.45
2023-02-14T14:43:55.268Z,77.35
2023-02-14T14:44:55.306Z,77.97
2023-02-14T14:45:55.392Z,78.07
2023-02-14T14:46:55.261Z,78.69
2023-02-14T14:47:55.259Z,76.53
2023-02-14T14:48:55.238Z,76.83
2023-02-14T14:49:55.207Z,78.89
2023-02-14T14:50:55.225Z,80.23
2023-02-14T14:51:55.222Z,77.14
2023-02-14T14:52:55.202Z,76.49
2023-02-14T14:53:55.172Z,76.07
2023-02-14T14:54:55.209Z,74.74
2023-02-14T14:55:55.151Z,78.44
2023-02-14T14:56:55.204Z,76.49
2023-02-14T14:57:55.127Z,78.03
2023-02-14T14:58:55.137Z,76.70
2023-02-14T14:59:55.116Z,76.59
2023-02-14T15:00:55.175Z,75.15
2023-02-14T15:01:55.091Z,75.46
2023-02-14T15:02:55.110Z,78.44
2023-02-14T15:03:55.069Z,76.90
2023-02-14T15:04:55.084Z,75.46
2023-02-14T15:05:55.050Z,76.59
2023-02-14T15:06:55.064Z,77.11
2023-02-14T15:07:55.031Z,76.39
2023-02-14T15:08:55.037Z,76.18
2023-02-14T15:09:55.002Z,77.11
2023-02-14T15:10:55.015Z,78.14
2023-02-14T15:11:55.023Z,76.79
2023-02-14T15:12:54.997Z,76.28
2023-02-14T15:13:55.017Z,75.87
2023-02-14T15:14:55.020Z,75.67
2023-02-14T15:15:54.944Z,77.51
2023-02-14T15:16:55.043Z,78.65
2023-02-14T15:17:54.953Z,78.24
2023-02-14T15:18:54.936Z,78.75
2023-02-14T15:19:54.899Z,78.86
2023-02-14T15:20:54.907Z,78.34
2023-02-14T15:21:54.878Z,77.72
2023-02-14T15:22:54.902Z,78.86
2023-02-14T15:23:54.855Z,79.16
2023-02-14T15:24:54.875Z,77.93
2023-02-14T15:25:54.859Z,78.44
2023-02-14T15:26:54.864Z,77.83
2023-02-14T15:27:54.850Z,78.03
2023-02-14T15:28:54.832Z,78.24
2023-02-14T15:29:54.875Z,78.14
2023-02-14T15:30:54.868Z,77.51
2023-02-14T15:31:54.884Z,77.83
2023-02-14T15:32:54.775Z,78.17
2023-02-14T15:33:54.773Z,75.49
2023-02-14T15:34:54.768Z,77.14
2023-02-14T15:35:54.723Z,76.46
2023-02-14T15:36:54.745Z,79.03
2023-02-14T15:37:54.746Z,78.00
2023-02-14T15:38:54.712Z,77.42
2023-02-14T15:39:54.696Z,77.94
2023-02-14T15:40:54.732Z,76.80
2023-02-14T15:41:54.665Z,77.15
2023-02-14T15:42:54.680Z,76.84
2023-02-14T15:43:54.697Z,77.97
2023-02-14T15:44:54.654Z,77.76
2023-02-14T15:45:54.658Z,79.25
2023-02-14T15:46:54.660Z,77.28
2023-02-14T15:47:54.602Z,76.87
2023-02-14T15:48:54.611Z,78.31
2023-02-14T15:49:54.594Z,78.21
2023-02-14T15:50:54.593Z,77.42
2023-02-14T15:51:54.602Z,77.63
2023-02-14T15:52:54.560Z,78.56
2023-02-14T15:53:54.562Z,77.15
2023-02-14T15:54:54.554Z,78.39
2023-02-14T15:55:54.528Z,78.08
2023-02-14T15:56:54.545Z,79.42
2023-02-14T15:57:54.486Z,79.63
2023-02-14T15:58:54.498Z,79.77
2023-02-14T15:59:54.464Z,80.60
2023-02-14T16:00:54.465Z,79.36
2023-02-14T16:01:54.556Z,79.87
2023-02-14T16:02:54.451Z,79.66
2023-02-14T16:03:54.423Z,80.18
2023-02-14T16:04:54.424Z,80.70
2023-02-14T16:05:54.408Z,80.70
2023-02-14T16:06:54.473Z,79.97
2023-02-14T16:07:54.386Z,81.11
2023-02-14T16:08:54.394Z,80.70
2023-02-14T16:09:54.355Z,80.90
2023-02-14T16:10:54.349Z,80.08
2023-02-14T16:11:54.339Z,79.46
2023-02-14T16:12:56.511Z,80.11
2023-02-14T16:13:54.332Z,80.11
2023-02-14T16:14:54.326Z,82.08
2023-02-14T16:15:54.356Z,81.25
2023-02-14T16:16:54.289Z,82.60
2023-02-14T16:17:54.293Z,80.77
2023-02-14T16:18:54.274Z,82.74
2023-02-14T16:19:54.259Z,82.32
2023-02-14T16:20:54.264Z,81.39
2023-02-14T16:21:54.234Z,81.39
2023-02-14T16:22:54.236Z,81.60
2023-02-14T16:23:54.229Z,81.23
2023-02-14T16:24:54.205Z,81.33
2023-02-14T16:25:54.168Z,81.95
2023-02-14T16:26:54.183Z,82.46
2023-02-14T16:27:54.153Z,81.78
2023-02-14T16:28:54.172Z,81.99
2023-02-14T16:29:54.192Z,82.19
2023-02-14T16:30:54.290Z,83.33
2023-02-14T16:32:14.522Z,83.33
2023-02-14T16:32:54.163Z,83.33
2023-02-14T16:33:55.324Z,82.71
2023-02-14T16:34:54.096Z,83.23
2023-02-14T16:35:54.065Z,83.54
2023-02-14T16:36:54.081Z,84.27
2023-02-14T16:37:54.070Z,84.16
2023-02-14T16:38:54.203Z,83.47
2023-02-14T16:39:54.046Z,82.95
2023-02-14T16:40:54.033Z,83.58
2023-02-14T16:41:54.014Z,83.47
2023-02-14T16:42:54.030Z,83.47
2023-02-14T16:43:54.013Z,83.68
2023-02-14T16:44:53.985Z,83.37
2023-02-14T16:45:53.989Z,84.51
2023-02-14T16:46:53.974Z,84.41
2023-02-14T16:47:53.934Z,84.55
2023-02-14T16:48:53.959Z,84.65
2023-02-14T16:49:53.999Z,85.27
2023-02-14T16:50:53.934Z,84.86
2023-02-14T16:51:53.914Z,85.06
2023-02-14T16:52:53.880Z,84.44
2023-02-14T16:53:53.920Z,84.34
2023-02-14T16:54:54.057Z,84.96
2023-02-14T16:55:53.863Z,85.11
2023-02-14T16:56:53.844Z,85.79
2023-02-14T16:57:53.845Z,85.73
2023-02-14T16:58:53.833Z,85.42
2023-02-14T16:59:53.857Z,85.31
2023-02-14T17:00:53.808Z,85.42
2023-02-14T17:01:53.851Z,85.63
2023-02-14T17:02:53.824Z,85.83
2023-02-14T17:03:53.777Z,85.00
2023-02-14T17:04:53.757Z,85.52
2023-02-14T17:05:53.775Z,85.63
2023-02-14T17:06:53.745Z,85.73
2023-02-14T17:07:53.736Z,85.52
2023-02-14T17:08:53.728Z,85.73
2023-02-14T17:09:53.718Z,85.73
2023-02-14T17:10:53.771Z,85.94
2023-02-14T17:11:53.759Z,85.42
2023-02-14T17:12:53.732Z,86.04
2023-02-14T17:13:53.737Z,85.94
2023-02-14T17:14:53.930Z,85.83
2023-02-14T17:15:53.763Z,86.45
2023-02-14T17:16:53.683Z,85.83
2023-02-14T17:17:53.684Z,85.52
2023-02-14T17:18:53.664Z,86.15
2023-02-14T17:19:53.672Z,85.94
2023-02-14T17:20:53.658Z,86.15
2023-02-14T17:21:53.658Z,86.97
2023-02-14T17:22:53.632Z,86.87